LEGE/GRO METAR and TAF weather

Enter ICAO airport designator
Station Type Date Time Source
LEGE METAR 2019/04/25 12:00 UTC NOAA

LEGE 251200Z 26010KT 210V340 9999 FEW030 SCT060 19/09 Q1010


Station Type Date Time Source
LEGE Decoded METAR 2019/04/25 12:00 UTC NOAA

Gerona / Costa Brava, Spain (LEGE) 41-54N 002-46E 129M
Apr 25, 2019 - 08:00 AM EDT / 2019.04.25 1200 UTC
Wind: from the W (260 degrees) at 12 MPH (10 KT) (direction variable):0
Visibility: greater than 7 mile(s):0
Sky conditions: partly cloudy
Temperature: 66 F (19 C)
Dew Point: 48 F (9 C)
Relative Humidity: 52%
Pressure (altimeter): 29.83 in. Hg (1010 hPa)
ob: LEGE 251200Z 26010KT 210V340 9999 FEW030 SCT060 19/09 Q1010
cycle: 12

Station Type Date Time Source
LEGE TAF 2019/04/25 12:27 UTC NOAA

TAF LEGE 251100Z 2512/2612 19010KT 9999 BKN020 TX21/2513Z TN09/2606Z
TEMPO 2512/2514 19020G30KT
TEMPO 2515/2517 20015G25KT
BECMG 2518/2520 VRB04KT
TEMPO 2521/2523 27012KT

Example: see airport list